LFOVLFRN

Guest
Details From LFOV - Laval Entrammes
To LFRN - Rennes St Jacques
Flight Number -
Tags generated
Created
Modified
Stats Distance 40 nm / 75 km
Max Altitude 4,300 ft / 1,311 m
Waypoints 3
Social Downloads 3
Likes 0
Share VATSIM

Download

Looking for another format? Having issues loading an existing format? Contact us
Advertisement - Login to hide

Notes

Basic altitude profile: - Ascent Rate: 2500ft/min - Ascent Speed: 250kts - Cruise Altitude: 35000ft - Cruise Speed: 420kts - Descent Rate: 1500ft/min - Descent Speed: 250kts Options: - Use NATs: yes - Use PACOTS: yes - Use low airways: yes - Use high airways: yes

Route

LFOV VAKSI LFRN

ID Type Via Altitude Latitude Longitude Leg Dist Tot Dist Heading (true) Name
O LFOV APT - 0 ft / 0 m 48.03136˚ -0.74299˚ - 0 nm - Laval Entrammes
VAKSI FIX - 4,300 ft / 1,311 m 47.99917˚ -1.23472˚ 19 nm 19 nm 265° / 264° -
O LFRN APT - 0 ft / 0 m 48.06941˚ -1.73459˚ 20 nm 40 nm 282° / 282° Rennes St Jacques

Altitude Profile

Advertisement - Login to hide

LFOV

Details ICAO LFOV (LVA)
Name Laval Entrammes
Region France
Timezone Europe/Paris (UTC+1.0)
Stats Elevation 330 ft / 101 m (AMSL)
Location 48.031360° -0.742988°
Runways 1
Magnetic Variation 0.312° W

METAR

LFOV 122000Z AUTO 21008KT 9999 FEW046 OVC120 05/03 Q1015

Decode

TAF

Not found

Departure Runways

ID Width Length Bearing (true) Bearing (mag) Surface Threshold Offset Overrun Length
15 98 ft / 30 m 5,004 ft / 1,525 m 142.43° 142.74° Asphalt 0 ft / 0 m 197 ft / 60 m
33 98 ft / 30 m 5,004 ft / 1,525 m 322.44° 322.75° Asphalt 985 ft / 300 m 197 ft / 60 m

LFRN

Details ICAO LFRN (RNS)
Name Rennes St Jacques
Region France
Timezone Europe/Paris (UTC+1.0)
Stats Elevation 124 ft / 38 m (AMSL)
Location 48.069410° -1.734587°
Runways 2
Magnetic Variation 0.634° W

METAR

LFRN 122000Z AUTO 18008KT CAVOK 06/04 Q1014 NOSIG

Decode

TAF

TAF LFRN 121700Z 1218/1318 17005KT 9999 BKN030 BECMG 1220/1222 18010KT BECMG 1223/1301 5000 RA BECMG 1301/1303 BKN010 TEMPO 1302/1305 22015G25KT 2000 BKN003 BECMG 1304/1306 25010KT 9999 NSW SCT020 BECMG 1309/1312 22013KT BECMG 1310/1313 5000 RA BKN010 BECMG 1316/1318 9999 NSW BKN025 TEMPO 1315/1318 28015G25KT

Decode

Destination Runways

ID Width Length Bearing (true) Bearing (mag) Surface Threshold Offset Overrun Length
10 148 ft / 45 m 6,895 ft / 2,102 m 100.76° 101.39° Asphalt 230 ft / 70 m 0 ft / 0 m
14 98 ft / 30 m 2,785 ft / 849 m 142.19° 142.82° Asphalt 0 ft / 0 m 0 ft / 0 m
28 148 ft / 45 m 6,895 ft / 2,102 m 280.78° 281.41° Asphalt 0 ft / 0 m 0 ft / 0 m
32 98 ft / 30 m 2,785 ft / 849 m 322.20° 322.83° Asphalt 0 ft / 0 m 0 ft / 0 m

Approach Navaids

Runway Type Ident Frequency Range Bearing (true) Bearing (mag) Slope Elevation
28 Localiser RS 110.10 MHz 18 nm / 33 km 280.72° 281.35° - 124 ft / 38 m (AMSL)
28 Glidescope RS 110.10 MHz 10 nm / 19 km 280.77° 281.40° 3.00° 124 ft / 38 m (AMSL)
28 DME RS 110.10 MHz 18 nm / 33 km - - - 174 ft / 53 m (AMSL)

Popular Alternatives